Latest Coastal Weather Observations for Swan Island

IDT60701

Issued at 9:32 am EST Thursday 1 September 2016 (issued every 10 minutes, with the page automatically refreshed every 10 minutes)

About coastal observations | Map of coastal stations | Coastal observations for TAS | Marine services | Other Formats
Station Details ID: 092123 Name: SWAN ISLAND Lat: -40.73 Lon: 148.12 Height: 15.0 m
Data from the previous 72 hours. | See also: Recent months at Swan Island
Date/Time
EST
Temp
°C
Wind Pressure Rain since
9am
mm
Weather Cloud Vis
km
Sea
Height
m
Swell
Dir  Spd
kts
Gust
kts
hPa Trend Height
m
Period
s
Dir
01/09:30am 13.2 W 12 17 1014.1 - 0.0 - - - - - - -
01/09:00am 13.0 W 12 17 1014.1 - 0.2 - - - - - - -
01/08:30am 12.6 W 15 21 1014.1 - 0.2 - - - - - - -
01/08:00am 12.1 W 14 20 1013.9 - 0.2 - - - - - - -
01/07:30am 11.5 W 15 21 1013.6 - 0.2 - - - - - - -
01/07:00am 11.2 W 15 19 1013.2 - 0.2 - - - - - - -
01/06:30am 11.1 W 17 23 1012.9 - 0.2 - - - - - - -
01/06:00am 10.9 W 14 19 1012.7 - 0.2 - - - - - - -
01/05:30am 11.0 W 13 19 1012.5 - 0.2 - - - - - - -
01/05:00am 11.0 W 13 20 1012.1 - 0.2 - - - - - - -
01/04:30am 11.1 W 14 19 1011.9 - 0.2 - - - - - - -
01/04:00am 11.1 W 14 20 1011.7 - 0.2 - - - - - - -
01/03:30am 11.2 W 12 17 1011.6 - 0.2 - - - - - - -
01/03:00am 11.3 W 14 21 1011.4 - 0.2 - - - - - - -
01/02:30am 11.4 W 13 20 1011.3 - 0.2 - - - - - - -
01/02:00am 11.6 WNW 14 20 1011.3 - 0.2 - - - - - - -
01/01:30am 11.7 WNW 14 19 1011.4 - 0.2 - - - - - - -
01/01:00am 11.7 WNW 15 23 1011.1 - 0.2 - - - - - - -
01/12:30am 11.7 WNW 17 24 1011.0 - 0.2 - - - - - - -
01/12:00am 11.8 WNW 16 22 1010.8 - 0.2 - - - - - - -
 
Date/Time
EST
Temp
°C
Wind Pressure Rain since
9am
mm
Weather Cloud Vis
km
Sea
Height
m
Swell
Dir  Spd
kts
Gust
kts
hPa Trend Height
m
Period
s
Dir
31/11:30pm 11.9 WNW 17 24 1010.7 - 0.2 - - - - - - -
31/11:00pm 12.0 WNW 18 23 1010.6 - 0.2 - - - - - - -
31/10:30pm 12.0 WNW 16 21 1010.6 - 0.2 - - - - - - -
31/10:00pm 11.9 WNW 14 19 1010.4 - 0.2 - - - - - - -
31/09:30pm 11.9 WNW 15 19 1010.3 - 0.2 - - - - - - -
31/09:00pm 12.1 WNW 14 20 1010.3 - 0.2 - - - - - - -
31/08:30pm 12.1 WNW 14 20 1010.2 - 0.2 - - - - - - -
31/08:00pm 12.1 WNW 13 18 1010.2 - 0.2 - - - - - - -
31/07:30pm 12.2 WNW 15 20 1010.0 - 0.2 - - - - - - -
31/07:00pm 12.2 WNW 13 17 1009.9 - 0.2 - - - - - - -
31/06:30pm 12.2 WNW 13 21 1009.8 - 0.2 - - - - - - -
31/06:00pm 12.2 WNW 13 18 1009.4 - 0.2 - - - - - - -
31/05:30pm 12.5 WNW 13 17 1009.3 - 0.2 - - - - - - -
31/05:00pm 12.5 WNW 13 17 1009.1 - 0.2 - - - - - - -
31/04:30pm 12.6 WNW 11 14 1008.9 - 0.2 - - - - - - -
31/04:00pm 12.7 WNW 11 16 1008.9 - 0.2 - - - - - - -
31/03:30pm 13.5 WNW 10 13 1008.8 - 0.2 - - - - - - -
31/03:00pm 13.9 WNW 9 14 1008.9 - 0.2 - - - - - - -
31/02:30pm 14.3 WNW 9 12 1008.8 - 0.2 - - - - - - -
31/02:00pm 14.4 WNW 8 13 1008.7 - 0.2 - - - - - - -
31/01:30pm 15.0 W 8 14 1008.7 - 0.2 - - - - - - -
31/01:00pm 13.3 WNW 12 17 1009.3 - 0.2 - - - - - - -
31/12:30pm 12.9 WNW 11 15 1009.8 - 0.2 - - - - - - -
31/12:00pm 13.0 WNW 14 17 1010.1 - 0.0 - - - - - - -
31/11:30am 12.8 NW 11 15 1010.2 - 0.0 - - - - - - -
31/11:00am 12.5 NW 12 14 1010.5 - 0.0 - - - - - - -
31/10:30am 12.3 NW 13 15 1010.7 - 0.0 - - - - - - -
31/10:00am 12.3 NW 13 15 1011.0 - 0.0 - - - - - - -
31/09:30am 12.2 NW 11 13 1011.1 - 0.0 - - - - - - -
31/09:00am 12.2 NW 12 15 1011.1 - 10.4 - - - - - - -
31/08:30am 12.2 NNW 13 15 1011.3 - 10.4 - - - - - - -
31/08:00am 12.1 NNW 12 14 1011.1 - 10.4 - - - - - - -
31/07:30am 12.1 NNW 11 13 1011.0 - 10.4 - - - - - - -
31/07:00am 12.1 NNW 14 17 1011.3 - 10.0 - - - - - - -
31/06:30am 12.1 NNW 14 16 1011.0 - 10.0 - - - - - - -
31/06:00am 12.2 NNW 16 19 1011.2 - 9.8 Recent precip. - - - - - -
31/05:57am 12.1 NNW 15 19 1011.2 - 9.8 - - - - - - -
31/05:30am 11.7 NNW 6 8 1011.3 - 9.6 - - - - - - -
31/05:00am 11.6 N 5 6 1011.2 - 9.6 - - - - - - -
31/04:30am 11.6 N 5 7 1011.6 - 9.6 - - - - - - -
31/04:00am 11.5 N 8 10 1011.9 - 9.0 - - - - - - -
31/03:30am 11.4 N 11 14 1012.1 - 8.4 - - - - - - -
31/03:00am 11.7 N 9 11 1012.6 - 7.6 Rain - - - - - -
31/02:30am 11.7 N 7 9 1013.0 - 6.6 - - - - - - -
31/02:00am 11.7 N 4 5 1013.5 - 5.8 - - - - - - -
31/01:30am 11.7 NNE 3 4 1013.8 - 4.6 - - - - - - -
31/01:00am 11.8 N 2 3 1014.4 - 3.2 - - - - - - -
31/12:30am 11.8 NNW 4 5 1014.8 - 2.0 - - - - - - -
31/12:00am 11.9 N 6 7 1014.8 - 0.4 Rain - - - - - -
 
Date/Time
EST
Temp
°C
Wind Pressure Rain since
9am
mm
Weather Cloud Vis
km
Sea
Height
m
Swell
Dir  Spd
kts
Gust
kts
hPa Trend Height
m
Period
s
Dir
30/11:30pm 12.1 N 9 11 1014.9 - 0.2 - - - - - - -
30/11:00pm 11.9 N 6 8 1015.1 - 0.0 - - - - - - -
30/10:30pm 12.1 N 9 10 1015.4 - 0.0 - - - - - - -
30/10:00pm 12.2 NNE 6 8 1015.8 - 0.0 - - - - - - -
30/09:30pm 12.1 NE 9 13 1016.1 - 0.0 - - - - - - -
30/09:00pm 12.1 N 2 3 1015.9 - 0.0 - - - - - - -
30/08:30pm 12.2 NNE 2 3 1016.3 - 0.0 - - - - - - -
30/08:00pm 12.3 NNE 5 7 1016.9 - 0.0 - - - - - - -
30/07:30pm 12.2 NNE 5 6 1017.1 - 0.0 - - - - - - -
30/07:00pm 12.4 NNE 4 6 1017.2 - 0.0 - - - - - - -
30/06:30pm 12.6 NNE 7 9 1017.2 - 0.0 - - - - - - -
30/06:00pm 12.7 NNE 7 9 1017.6 - 0.0 - - - - - - -
30/05:30pm 12.6 NNE 7 8 1017.5 - 0.0 - - - - - - -
30/05:00pm 12.9 NE 6 7 1017.5 - 0.0 - - - - - - -
30/04:30pm 13.3 NE 6 8 1018.0 - 0.0 - - - - - - -
30/04:00pm 13.5 ENE 7 8 1018.2 - 0.0 - - - - - - -
30/03:30pm 13.9 NNE 9 13 1018.7 - 0.0 - - - - - - -
30/03:00pm 13.5 NE 14 18 1019.1 - 0.0 - - - - - - -
30/02:30pm 13.4 NE 13 16 1018.8 - 0.0 - - - - - - -
30/02:00pm 13.2 ENE 11 13 1019.0 - 0.0 - - - - - - -
30/01:30pm 13.3 ENE 11 13 1019.4 - 0.0 - - - - - - -
30/01:00pm 13.9 E 12 14 1019.9 - 0.0 - - - - - - -
30/12:30pm 13.1 ESE 10 12 1020.7 - 0.0 - - - - - - -
30/12:00pm 13.1 ESE 10 14 1021.4 - 0.0 - - - - - - -
30/11:30am 13.1 ESE 10 12 1021.9 - 0.0 - - - - - - -
30/11:00am 13.1 ESE 9 11 1022.3 - 0.0 - - - - - - -
30/10:30am 13.6 SE 7 9 1023.0 - 0.0 - - - - - - -
30/10:00am 12.6 ESE 10 12 1023.1 - 0.0 - - - - - - -
30/09:30am 12.2 ESE 10 13 1023.3 - 0.0 - - - - - - -
30/09:00am 11.7 SE 8 10 1023.9 - 0.2 - - - - - - -
30/08:30am 11.6 SE 8 10 1024.3 - 0.2 - - - - - - -
30/08:00am 11.1 SE 6 8 1024.3 - 0.2 - - - - - - -
30/07:30am 10.7 SSE 7 8 1024.3 - 0.2 - - - - - - -
30/07:00am 9.9 SSE 6 7 1024.4 - 0.2 - - - - - - -
30/06:30am 9.7 S 6 7 1024.2 - 0.2 - - - - - - -
30/06:00am 9.3 S 6 8 1024.0 - 0.2 - - - - - - -
30/05:30am 9.3 S 5 7 1023.8 - 0.2 - - - - - - -
30/05:00am 9.8 SSE 5 5 1024.1 - 0.2 - - - - - - -
30/04:30am 9.4 SSE 5 7 1023.8 - 0.2 - - - - - - -
30/04:00am 9.3 SE 6 7 1023.7 - 0.2 - - - - - - -
30/03:30am 8.4 S 5 6 1023.8 - 0.2 - - - - - - -
30/03:00am 8.3 S 5 6 1024.2 - 0.2 Recent precip. - - - - - -
30/02:30am 8.3 SSE 6 7 1024.0 - 0.2 - - - - - - -
30/02:00am 8.0 SSE 5 6 1024.3 - 0.0 - - - - - - -
30/01:30am 7.9 S 5 6 1024.8 - 0.0 - - - - - - -
30/01:00am 8.0 S 5 7 1025.0 - 0.0 - - - - - - -
30/12:30am 8.2 S 6 7 1025.0 - 0.0 - - - - - - -
30/12:00am 8.3 S 5 6 1025.1 - 0.0 - - - - - - -
 
Date/Time
EST
Temp
°C
Wind Pressure Rain since
9am
mm
Weather Cloud Vis
km
Sea
Height
m
Swell
Dir  Spd
kts
Gust
kts
hPa Trend Height
m
Period
s
Dir
29/11:30pm 8.9 SSE 4 6 1025.2 - 0.0 - - - - - - -
29/11:00pm 9.1 SSE 4 5 1025.3 - 0.0 - - - - - - -
29/10:30pm 9.1 SSE 3 3 1025.3 - 0.0 - - - - - - -
29/10:00pm 9.2 SSE 3 3 1025.3 - 0.0 - - - - - - -
29/09:30pm 9.4 SSE 4 5 1025.2 - 0.0 - - - - - - -
29/09:00pm 9.6 CALM 0 3 1025.0 - 0.0 - - - - - - -
29/08:30pm 10.1 NW 1 1 1024.8 - 0.0 - - - - - - -
29/08:00pm 9.9 NW 3 4 1024.9 - 0.0 - - - - - - -
29/07:30pm 10.2 NW 4 6 1024.7 - 0.0 - - - - - - -
29/07:00pm 10.3 NW 5 7 1024.6 - 0.0 - - - - - - -
29/06:30pm 10.1 WNW 5 6 1024.3 - 0.0 - - - - - - -
29/06:00pm 10.5 WNW 5 7 1024.1 - 0.0 - - - - - - -
29/05:30pm 10.8 WNW 6 7 1024.0 - 0.0 - - - - - - -
29/05:00pm 11.6 NW 6 8 1023.7 - 0.0 - - - - - - -
29/04:30pm 12.0 NW 7 9 1023.6 - 0.0 - - - - - - -
29/04:00pm 12.6 NW 8 10 1023.6 - 0.0 - - - - - - -
29/03:30pm 12.8 NW 8 10 1023.3 - 0.0 - - - - - - -
29/03:00pm 12.8 NW 8 12 1023.3 - 0.0 - - - - - - -
29/02:30pm 13.1 NW 9 13 1023.3 - 0.0 - - - - - - -
29/02:00pm 13.2 WNW 10 13 1023.4 - 0.0 - - - - - - -
29/01:30pm 13.3 NW 9 13 1023.6 - 0.0 - - - - - - -
29/01:00pm 13.4 NW 10 13 1023.7 - 0.0 - - - - - - -
29/12:30pm 12.9 NW 8 11 1023.9 - 0.0 - - - - - - -
29/12:00pm 13.5 WNW 6 9 1024.2 - 0.0 - - - - - - -
29/11:30am 12.5 NW 5 7 1024.6 - 0.0 - - - - - - -
29/11:00am 12.2 NW 3 5 1024.7 - 0.0 - - - - - - -
29/10:30am 12.1 NNW 3 4 1024.8 - 0.0 - - - - - - -
29/10:00am 11.2 NNW 3 4 1025.2 - 0.0 - - - - - - -

Other Formats:

Comma delimited format used in spreadsheet applications
http://www.bom.gov.au/fwo/IDT60701/IDT60701.95985.axf

JavaScript Object Notation format (JSON) in row-major order
http://www.bom.gov.au/fwo/IDT60701/IDT60701.95985.json